sensor_id;sensor_type;location;lat;lon;timestamp;temperature;humidity
70214;DHT22;60138;55.808;37.078;2022-07-04T00:01:52;18.39;52.35
70214;DHT22;60138;55.808;37.078;2022-07-04T00:04:18;18.34;52.69
70214;DHT22;60138;55.808;37.078;2022-07-04T00:06:43;18.22;52.58
70214;DHT22;60138;55.808;37.078;2022-07-04T00:09:09;18.15;52.60
70214;DHT22;60138;55.808;37.078;2022-07-04T00:11:35;18.10;52.99
70214;DHT22;60138;55.808;37.078;2022-07-04T00:14:00;18.04;52.75
70214;DHT22;60138;55.808;37.078;2022-07-04T00:16:26;18.03;53.14
70214;DHT22;60138;55.808;37.078;2022-07-04T00:18:52;18.00;53.20
70214;DHT22;60138;55.808;37.078;2022-07-04T00:21:18;17.98;53.26
70214;DHT22;60138;55.808;37.078;2022-07-04T00:23:44;17.97;53.55
70214;DHT22;60138;55.808;37.078;2022-07-04T00:26:09;17.94;53.50
70214;DHT22;60138;55.808;37.078;2022-07-04T00:28:35;17.92;53.56
70214;DHT22;60138;55.808;37.078;2022-07-04T00:31:01;17.90;53.23
70214;DHT22;60138;55.808;37.078;2022-07-04T00:33:26;17.88;53.46
70214;DHT22;60138;55.808;37.078;2022-07-04T00:35:52;17.84;53.62
70214;DHT22;60138;55.808;37.078;2022-07-04T00:38:18;17.80;53.78
70214;DHT22;60138;55.808;37.078;2022-07-04T00:40:43;17.79;53.90
70214;DHT22;60138;55.808;37.078;2022-07-04T00:43:09;17.80;53.95
70214;DHT22;60138;55.808;37.078;2022-07-04T00:45:35;17.79;53.92
70214;DHT22;60138;55.808;37.078;2022-07-04T00:48:00;17.80;54.26
70214;DHT22;60138;55.808;37.078;2022-07-04T00:50:26;17.77;54.06
70214;DHT22;60138;55.808;37.078;2022-07-04T00:52:53;17.72;54.47
70214;DHT22;60138;55.808;37.078;2022-07-04T00:55:22;17.66;54.30
70214;DHT22;60138;55.808;37.078;2022-07-04T00:57:48;17.64;54.70
70214;DHT22;60138;55.808;37.078;2022-07-04T01:00:14;17.65;54.28
70214;DHT22;60138;55.808;37.078;2022-07-04T01:02:40;17.61;54.74
70214;DHT22;60138;55.808;37.078;2022-07-04T01:05:06;17.60;54.85
70214;DHT22;60138;55.808;37.078;2022-07-04T01:07:32;17.58;54.99
70214;DHT22;60138;55.808;37.078;2022-07-04T01:09:57;17.55;54.89
70214;DHT22;60138;55.808;37.078;2022-07-04T01:12:28;17.52;55.39
70214;DHT22;60138;55.808;37.078;2022-07-04T01:14:54;17.47;55.38
70214;DHT22;60138;55.808;37.078;2022-07-04T01:17:20;17.40;56.14
70214;DHT22;60138;55.808;37.078;2022-07-04T01:19:45;17.36;55.47
70214;DHT22;60138;55.808;37.078;2022-07-04T01:22:12;17.35;55.73
70214;DHT22;60138;55.808;37.078;2022-07-04T01:24:38;17.31;55.31
70214;DHT22;60138;55.808;37.078;2022-07-04T01:27:04;17.28;55.65
70214;DHT22;60138;55.808;37.078;2022-07-04T01:29:31;17.22;56.25
70214;DHT22;60138;55.808;37.078;2022-07-04T01:31:57;17.21;55.83
70214;DHT22;60138;55.808;37.078;2022-07-04T01:34:22;17.23;55.97
70214;DHT22;60138;55.808;37.078;2022-07-04T01:36:48;17.25;56.90
70214;DHT22;60138;55.808;37.078;2022-07-04T01:39:14;17.26;56.56
70214;DHT22;60138;55.808;37.078;2022-07-04T01:41:40;17.29;56.35
70214;DHT22;60138;55.808;37.078;2022-07-04T01:44:05;17.36;56.59
70214;DHT22;60138;55.808;37.078;2022-07-04T01:46:31;17.39;56.66
70214;DHT22;60138;55.808;37.078;2022-07-04T01:48:57;17.46;56.68
70214;DHT22;60138;55.808;37.078;2022-07-04T01:51:22;17.48;56.54
70214;DHT22;60138;55.808;37.078;2022-07-04T01:53:48;17.52;56.74
70214;DHT22;60138;55.808;37.078;2022-07-04T01:56:14;17.54;56.31
70214;DHT22;60138;55.808;37.078;2022-07-04T01:58:39;17.58;56.55
70214;DHT22;60138;55.808;37.078;2022-07-04T02:01:05;17.59;56.69
70214;DHT22;60138;55.808;37.078;2022-07-04T02:03:31;17.63;56.53
70214;DHT22;60138;55.808;37.078;2022-07-04T02:05:57;17.66;56.45
70214;DHT22;60138;55.808;37.078;2022-07-04T02:08:22;17.69;56.54
70214;DHT22;60138;55.808;37.078;2022-07-04T02:10:48;17.75;56.35
70214;DHT22;60138;55.808;37.078;2022-07-04T02:13:14;17.79;56.55
70214;DHT22;60138;55.808;37.078;2022-07-04T02:15:41;17.84;57.19
70214;DHT22;60138;55.808;37.078;2022-07-04T02:18:09;17.89;56.72
70214;DHT22;60138;55.808;37.078;2022-07-04T02:20:36;17.93;57.22
70214;DHT22;60138;55.808;37.078;2022-07-04T02:23:03;17.95;56.57
70214;DHT22;60138;55.808;37.078;2022-07-04T02:25:29;18.00;56.52
70214;DHT22;60138;55.808;37.078;2022-07-04T02:27:56;18.05;56.66
70214;DHT22;60138;55.808;37.078;2022-07-04T02:30:22;18.11;56.61
70214;DHT22;60138;55.808;37.078;2022-07-04T02:32:48;18.14;56.30
70214;DHT22;60138;55.808;37.078;2022-07-04T02:35:14;18.21;56.18
70214;DHT22;60138;55.808;37.078;2022-07-04T02:37:40;18.25;56.24
70214;DHT22;60138;55.808;37.078;2022-07-04T02:40:06;18.30;56.26
70214;DHT22;60138;55.808;37.078;2022-07-04T02:42:33;18.37;56.48
70214;DHT22;60138;55.808;37.078;2022-07-04T02:44:59;18.42;56.33
70214;DHT22;60138;55.808;37.078;2022-07-04T02:47:26;18.48;56.51
70214;DHT22;60138;55.808;37.078;2022-07-04T02:49:52;18.54;56.26
70214;DHT22;60138;55.808;37.078;2022-07-04T02:52:17;18.57;56.77
70214;DHT22;60138;55.808;37.078;2022-07-04T02:54:43;18.65;56.29
70214;DHT22;60138;55.808;37.078;2022-07-04T02:57:09;18.69;56.13
70214;DHT22;60138;55.808;37.078;2022-07-04T02:59:35;18.74;56.06
70214;DHT22;60138;55.808;37.078;2022-07-04T03:02:00;18.79;56.02
70214;DHT22;60138;55.808;37.078;2022-07-04T03:04:26;18.85;55.87
70214;DHT22;60138;55.808;37.078;2022-07-04T03:06:52;18.91;55.84
70214;DHT22;60138;55.808;37.078;2022-07-04T03:09:18;19.00;56.36
70214;DHT22;60138;55.808;37.078;2022-07-04T03:11:44;19.11;59.51
70214;DHT22;60138;55.808;37.078;2022-07-04T03:14:10;19.25;58.82
70214;DHT22;60138;55.808;37.078;2022-07-04T03:16:36;19.36;56.09
70214;DHT22;60138;55.808;37.078;2022-07-04T03:19:02;19.44;55.47
70214;DHT22;60138;55.808;37.078;2022-07-04T03:21:28;19.51;54.91
70214;DHT22;60138;55.808;37.078;2022-07-04T03:23:54;19.56;54.69
70214;DHT22;60138;55.808;37.078;2022-07-04T03:26:19;19.61;54.04
70214;DHT22;60138;55.808;37.078;2022-07-04T03:28:46;19.66;55.16
70214;DHT22;60138;55.808;37.078;2022-07-04T03:31:12;19.70;55.94
70214;DHT22;60138;55.808;37.078;2022-07-04T03:33:37;19.73;55.62
70214;DHT22;60138;55.808;37.078;2022-07-04T03:36:03;19.74;56.86
70214;DHT22;60138;55.808;37.078;2022-07-04T03:38:29;19.80;56.06
70214;DHT22;60138;55.808;37.078;2022-07-04T03:40:55;19.84;57.64
70214;DHT22;60138;55.808;37.078;2022-07-04T03:43:20;19.87;56.80
70214;DHT22;60138;55.808;37.078;2022-07-04T03:45:46;19.91;53.70
70214;DHT22;60138;55.808;37.078;2022-07-04T03:48:12;19.96;57.04
70214;DHT22;60138;55.808;37.078;2022-07-04T03:50:37;19.99;56.14
70214;DHT22;60138;55.808;37.078;2022-07-04T03:53:03;20.04;57.08
70214;DHT22;60138;55.808;37.078;2022-07-04T03:55:28;20.09;55.78
70214;DHT22;60138;55.808;37.078;2022-07-04T03:57:54;20.14;55.85
70214;DHT22;60138;55.808;37.078;2022-07-04T04:00:20;20.19;57.79
70214;DHT22;60138;55.808;37.078;2022-07-04T04:02:45;20.24;57.06
70214;DHT22;60138;55.808;37.078;2022-07-04T04:05:11;20.32;58.70
70214;DHT22;60138;55.808;37.078;2022-07-04T04:07:37;20.41;56.53
70214;DHT22;60138;55.808;37.078;2022-07-04T04:10:03;20.44;57.84
70214;DHT22;60138;55.808;37.078;2022-07-04T04:12:28;20.51;55.59
70214;DHT22;60138;55.808;37.078;2022-07-04T04:14:54;20.53;55.00
70214;DHT22;60138;55.808;37.078;2022-07-04T04:17:20;20.59;56.72
70214;DHT22;60138;55.808;37.078;2022-07-04T04:19:45;20.64;58.71
70214;DHT22;60138;55.808;37.078;2022-07-04T04:22:11;20.72;56.53
70214;DHT22;60138;55.808;37.078;2022-07-04T04:24:37;20.76;57.96
70214;DHT22;60138;55.808;37.078;2022-07-04T04:27:03;20.78;57.48
70214;DHT22;60138;55.808;37.078;2022-07-04T04:29:28;20.83;58.53
70214;DHT22;60138;55.808;37.078;2022-07-04T04:31:54;20.86;56.29
70214;DHT22;60138;55.808;37.078;2022-07-04T04:34:20;20.90;55.56
70214;DHT22;60138;55.808;37.078;2022-07-04T04:36:45;20.93;54.81
70214;DHT22;60138;55.808;37.078;2022-07-04T04:39:11;20.99;55.89
70214;DHT22;60138;55.808;37.078;2022-07-04T04:41:37;21.09;57.97
70214;DHT22;60138;55.808;37.078;2022-07-04T04:44:03;21.21;56.26
70214;DHT22;60138;55.808;37.078;2022-07-04T04:46:28;21.29;55.53
70214;DHT22;60138;55.808;37.078;2022-07-04T04:48:54;21.39;56.58
70214;DHT22;60138;55.808;37.078;2022-07-04T04:51:20;21.51;57.41
70214;DHT22;60138;55.808;37.078;2022-07-04T04:53:45;21.61;56.17
70214;DHT22;60138;55.808;37.078;2022-07-04T04:56:11;21.70;52.61
70214;DHT22;60138;55.808;37.078;2022-07-04T04:58:37;21.81;53.77
70214;DHT22;60138;55.808;37.078;2022-07-04T05:01:03;21.87;54.48
70214;DHT22;60138;55.808;37.078;2022-07-04T05:03:29;21.92;55.67
70214;DHT22;60138;55.808;37.078;2022-07-04T05:05:54;22.06;56.71
70214;DHT22;60138;55.808;37.078;2022-07-04T05:08:20;22.12;54.81
70214;DHT22;60138;55.808;37.078;2022-07-04T05:10:46;22.18;56.07
70214;DHT22;60138;55.808;37.078;2022-07-04T05:13:11;22.23;54.80
70214;DHT22;60138;55.808;37.078;2022-07-04T05:15:37;22.35;55.93
70214;DHT22;60138;55.808;37.078;2022-07-04T05:18:03;22.44;53.11
70214;DHT22;60138;55.808;37.078;2022-07-04T05:20:28;22.51;53.16
70214;DHT22;60138;55.808;37.078;2022-07-04T05:22:54;22.57;53.64
70214;DHT22;60138;55.808;37.078;2022-07-04T05:25:20;22.65;52.91
70214;DHT22;60138;55.808;37.078;2022-07-04T05:27:45;22.66;52.59
70214;DHT22;60138;55.808;37.078;2022-07-04T05:30:11;22.70;53.69
70214;DHT22;60138;55.808;37.078;2022-07-04T05:32:40;22.83;52.27
70214;DHT22;60138;55.808;37.078;2022-07-04T05:35:07;22.96;51.90
70214;DHT22;60138;55.808;37.078;2022-07-04T05:37:33;23.11;50.89
70214;DHT22;60138;55.808;37.078;2022-07-04T05:39:58;23.25;50.43
70214;DHT22;60138;55.808;37.078;2022-07-04T05:42:24;23.29;51.27
70214;DHT22;60138;55.808;37.078;2022-07-04T05:44:50;23.40;51.03
70214;DHT22;60138;55.808;37.078;2022-07-04T05:47:16;23.45;49.55
70214;DHT22;60138;55.808;37.078;2022-07-04T05:49:41;23.50;48.72
70214;DHT22;60138;55.808;37.078;2022-07-04T05:52:07;23.56;49.93
70214;DHT22;60138;55.808;37.078;2022-07-04T05:54:33;23.64;48.90
70214;DHT22;60138;55.808;37.078;2022-07-04T05:56:58;23.70;49.17
70214;DHT22;60138;55.808;37.078;2022-07-04T05:59:24;23.79;48.16
70214;DHT22;60138;55.808;37.078;2022-07-04T06:01:50;23.86;48.21
70214;DHT22;60138;55.808;37.078;2022-07-04T06:04:15;23.94;47.40
70214;DHT22;60138;55.808;37.078;2022-07-04T06:06:41;24.02;47.64
70214;DHT22;60138;55.808;37.078;2022-07-04T06:09:07;24.14;47.55
70214;DHT22;60138;55.808;37.078;2022-07-04T06:11:32;24.23;46.77
70214;DHT22;60138;55.808;37.078;2022-07-04T06:13:59;24.30;47.96
70214;DHT22;60138;55.808;37.078;2022-07-04T06:16:24;24.42;46.29
70214;DHT22;60138;55.808;37.078;2022-07-04T06:18:50;24.46;46.43
70214;DHT22;60138;55.808;37.078;2022-07-04T06:21:16;24.54;46.22
70214;DHT22;60138;55.808;37.078;2022-07-04T06:23:41;24.61;45.50
70214;DHT22;60138;55.808;37.078;2022-07-04T06:26:07;24.62;45.08
70214;DHT22;60138;55.808;37.078;2022-07-04T06:28:33;24.68;44.83
70214;DHT22;60138;55.808;37.078;2022-07-04T06:30:58;24.68;44.70
70214;DHT22;60138;55.808;37.078;2022-07-04T06:33:24;24.74;44.78
70214;DHT22;60138;55.808;37.078;2022-07-04T06:35:50;24.83;44.06
70214;DHT22;60138;55.808;37.078;2022-07-04T06:38:17;24.90;44.04
70214;DHT22;60138;55.808;37.078;2022-07-04T06:40:43;24.98;43.76
70214;DHT22;60138;55.808;37.078;2022-07-04T06:43:09;25.00;43.79
70214;DHT22;60138;55.808;37.078;2022-07-04T06:45:35;25.07;43.45
70214;DHT22;60138;55.808;37.078;2022-07-04T06:48:04;25.08;43.22
70214;DHT22;60138;55.808;37.078;2022-07-04T06:50:30;25.10;43.26
70214;DHT22;60138;55.808;37.078;2022-07-04T06:52:56;25.14;42.80
70214;DHT22;60138;55.808;37.078;2022-07-04T06:55:21;25.20;42.81
70214;DHT22;60138;55.808;37.078;2022-07-04T06:57:47;25.23;42.62
70214;DHT22;60138;55.808;37.078;2022-07-04T07:00:13;25.25;42.58
70214;DHT22;60138;55.808;37.078;2022-07-04T07:02:39;25.32;42.61
70214;DHT22;60138;55.808;37.078;2022-07-04T07:05:05;25.38;42.71
70214;DHT22;60138;55.808;37.078;2022-07-04T07:07:31;25.47;42.64
70214;DHT22;60138;55.808;37.078;2022-07-04T07:09:56;25.50;42.21
70214;DHT22;60138;55.808;37.078;2022-07-04T07:12:22;25.49;42.36
70214;DHT22;60138;55.808;37.078;2022-07-04T07:14:49;25.52;42.50
70214;DHT22;60138;55.808;37.078;2022-07-04T07:17:16;25.60;42.13
70214;DHT22;60138;55.808;37.078;2022-07-04T07:19:43;25.74;41.70
70214;DHT22;60138;55.808;37.078;2022-07-04T07:22:10;25.79;41.25
70214;DHT22;60138;55.808;37.078;2022-07-04T07:24:35;25.80;41.40
70214;DHT22;60138;55.808;37.078;2022-07-04T07:27:01;25.86;40.75
70214;DHT22;60138;55.808;37.078;2022-07-04T07:29:27;25.92;40.72
70214;DHT22;60138;55.808;37.078;2022-07-04T07:31:53;25.93;41.01
70214;DHT22;60138;55.808;37.078;2022-07-04T07:34:19;25.94;40.53
70214;DHT22;60138;55.808;37.078;2022-07-04T07:36:45;25.95;40.25
70214;DHT22;60138;55.808;37.078;2022-07-04T07:39:11;25.96;40.65
70214;DHT22;60138;55.808;37.078;2022-07-04T07:41:37;26.02;40.30
70214;DHT22;60138;55.808;37.078;2022-07-04T07:44:03;26.08;39.10
70214;DHT22;60138;55.808;37.078;2022-07-04T07:46:29;26.10;39.58
70214;DHT22;60138;55.808;37.078;2022-07-04T07:48:55;26.13;37.35
70214;DHT22;60138;55.808;37.078;2022-07-04T07:51:20;26.20;38.96
70214;DHT22;60138;55.808;37.078;2022-07-04T07:53:46;26.20;39.60
70214;DHT22;60138;55.808;37.078;2022-07-04T07:56:12;26.28;39.17
70214;DHT22;60138;55.808;37.078;2022-07-04T07:58:38;26.27;39.64
70214;DHT22;60138;55.808;37.078;2022-07-04T08:01:03;26.26;37.55
70214;DHT22;60138;55.808;37.078;2022-07-04T08:03:29;26.26;38.11
70214;DHT22;60138;55.808;37.078;2022-07-04T08:05:55;26.33;37.95
70214;DHT22;60138;55.808;37.078;2022-07-04T08:08:20;26.37;38.34
70214;DHT22;60138;55.808;37.078;2022-07-04T08:10:46;26.52;36.93
70214;DHT22;60138;55.808;37.078;2022-07-04T08:13:12;26.54;37.70
70214;DHT22;60138;55.808;37.078;2022-07-04T08:15:37;26.57;38.48
70214;DHT22;60138;55.808;37.078;2022-07-04T08:18:03;26.56;38.07
70214;DHT22;60138;55.808;37.078;2022-07-04T08:20:29;26.55;37.91
70214;DHT22;60138;55.808;37.078;2022-07-04T08:22:55;26.61;37.40
70214;DHT22;60138;55.808;37.078;2022-07-04T08:25:21;26.67;37.45
70214;DHT22;60138;55.808;37.078;2022-07-04T08:27:47;26.66;34.66
70214;DHT22;60138;55.808;37.078;2022-07-04T08:30:13;26.78;37.18
70214;DHT22;60138;55.808;37.078;2022-07-04T08:32:39;26.79;37.25
70214;DHT22;60138;55.808;37.078;2022-07-04T08:35:05;26.90;36.77
70214;DHT22;60138;55.808;37.078;2022-07-04T08:37:31;26.99;37.14
70214;DHT22;60138;55.808;37.078;2022-07-04T08:39:56;27.00;37.38
70214;DHT22;60138;55.808;37.078;2022-07-04T08:42:22;26.98;37.69
70214;DHT22;60138;55.808;37.078;2022-07-04T08:44:53;27.09;37.43
70214;DHT22;60138;55.808;37.078;2022-07-04T08:47:21;27.14;37.28
70214;DHT22;60138;55.808;37.078;2022-07-04T08:52:37;27.26;36.30
70214;DHT22;60138;55.808;37.078;2022-07-04T08:55:05;27.23;36.85
70214;DHT22;60138;55.808;37.078;2022-07-04T08:57:30;27.25;34.89
70214;DHT22;60138;55.808;37.078;2022-07-04T08:59:58;27.39;36.24
70214;DHT22;60138;55.808;37.078;2022-07-04T09:02:24;27.46;34.56
70214;DHT22;60138;55.808;37.078;2022-07-04T09:04:51;27.54;35.79
70214;DHT22;60138;55.808;37.078;2022-07-04T09:07:17;27.64;36.74
70214;DHT22;60138;55.808;37.078;2022-07-04T09:09:43;27.75;35.28
70214;DHT22;60138;55.808;37.078;2022-07-04T09:12:10;27.78;35.78
70214;DHT22;60138;55.808;37.078;2022-07-04T09:14:36;27.87;35.99
70214;DHT22;60138;55.808;37.078;2022-07-04T09:17:02;27.96;35.65
70214;DHT22;60138;55.808;37.078;2022-07-04T09:19:28;28.03;35.86
70214;DHT22;60138;55.808;37.078;2022-07-04T09:21:54;28.10;35.44
70214;DHT22;60138;55.808;37.078;2022-07-04T09:24:45;28.27;33.93
70214;DHT22;60138;55.808;37.078;2022-07-04T09:27:11;28.41;32.94
70214;DHT22;60138;55.808;37.078;2022-07-04T09:30:03;28.50;33.91
70214;DHT22;60138;55.808;37.078;2022-07-04T09:32:37;28.60;33.57
70214;DHT22;60138;55.808;37.078;2022-07-04T09:35:05;28.70;32.11
70214;DHT22;60138;55.808;37.078;2022-07-04T09:37:36;28.73;33.19
70214;DHT22;60138;55.808;37.078;2022-07-04T09:40:04;28.80;34.92
70214;DHT22;60138;55.808;37.078;2022-07-04T09:42:38;28.85;32.61
70214;DHT22;60138;55.808;37.078;2022-07-04T09:45:06;28.86;31.54
70214;DHT22;60138;55.808;37.078;2022-07-04T09:47:32;28.93;33.86
70214;DHT22;60138;55.808;37.078;2022-07-04T09:50:18;28.94;33.46
70214;DHT22;60138;55.808;37.078;2022-07-04T09:52:58;28.98;32.60
70214;DHT22;60138;55.808;37.078;2022-07-04T09:55:25;29.05;33.00
70214;DHT22;60138;55.808;37.078;2022-07-04T09:57:52;29.09;33.10
70214;DHT22;60138;55.808;37.078;2022-07-04T10:02:48;29.07;31.58
70214;DHT22;60138;55.808;37.078;2022-07-04T10:05:28;29.03;29.32
70214;DHT22;60138;55.808;37.078;2022-07-04T10:07:55;28.99;31.82
70214;DHT22;60138;55.808;37.078;2022-07-04T10:10:30;29.00;30.09
70214;DHT22;60138;55.808;37.078;2022-07-04T10:13:01;29.01;30.93
70214;DHT22;60138;55.808;37.078;2022-07-04T10:15:27;29.11;31.18
70214;DHT22;60138;55.808;37.078;2022-07-04T10:17:53;29.15;28.96
70214;DHT22;60138;55.808;37.078;2022-07-04T10:20:19;29.15;31.29
70214;DHT22;60138;55.808;37.078;2022-07-04T10:22:44;29.11;29.10
70214;DHT22;60138;55.808;37.078;2022-07-04T10:25:10;29.14;31.85
70214;DHT22;60138;55.808;37.078;2022-07-04T10:27:37;29.20;31.03
70214;DHT22;60138;55.808;37.078;2022-07-04T10:30:06;29.27;31.28
70214;DHT22;60138;55.808;37.078;2022-07-04T10:32:33;29.26;31.35
70214;DHT22;60138;55.808;37.078;2022-07-04T10:34:59;29.30;29.44
70214;DHT22;60138;55.808;37.078;2022-07-04T10:37:25;29.32;30.34
70214;DHT22;60138;55.808;37.078;2022-07-04T10:39:50;29.39;30.28
70214;DHT22;60138;55.808;37.078;2022-07-04T10:42:26;29.48;29.68
70214;DHT22;60138;55.808;37.078;2022-07-04T10:44:52;29.56;30.61
70214;DHT22;60138;55.808;37.078;2022-07-04T10:47:22;29.57;27.88
70214;DHT22;60138;55.808;37.078;2022-07-04T10:49:48;29.53;29.65
70214;DHT22;60138;55.808;37.078;2022-07-04T10:52:14;29.56;29.48
70214;DHT22;60138;55.808;37.078;2022-07-04T10:54:42;29.66;28.86
70214;DHT22;60138;55.808;37.078;2022-07-04T11:00:06;29.80;30.67
70214;DHT22;60138;55.808;37.078;2022-07-04T11:02:33;29.89;31.18
70214;DHT22;60138;55.808;37.078;2022-07-04T11:05:06;29.91;29.51
70214;DHT22;60138;55.808;37.078;2022-07-04T11:20:26;29.90;30.91
70214;DHT22;60138;55.808;37.078;2022-07-04T11:22:53;29.94;30.78
70214;DHT22;60138;55.808;37.078;2022-07-04T11:25:19;30.04;31.16
70214;DHT22;60138;55.808;37.078;2022-07-04T11:27:44;30.16;30.40
70214;DHT22;60138;55.808;37.078;2022-07-04T11:30:11;30.17;30.46
70214;DHT22;60138;55.808;37.078;2022-07-04T11:32:38;30.18;30.44
70214;DHT22;60138;55.808;37.078;2022-07-04T11:35:05;30.20;30.47
70214;DHT22;60138;55.808;37.078;2022-07-04T11:37:32;30.21;30.45
70214;DHT22;60138;55.808;37.078;2022-07-04T11:39:58;30.26;29.94
70214;DHT22;60138;55.808;37.078;2022-07-04T11:42:24;30.25;29.06
70214;DHT22;60138;55.808;37.078;2022-07-04T11:44:49;30.20;29.59
70214;DHT22;60138;55.808;37.078;2022-07-04T11:49:52;32.33;26.52
70214;DHT22;60138;55.808;37.078;2022-07-04T11:52:30;33.87;23.83
70214;DHT22;60138;55.808;37.078;2022-07-04T11:54:56;34.97;25.30
70214;DHT22;60138;55.808;37.078;2022-07-04T11:57:23;35.87;19.29
70214;DHT22;60138;55.808;37.078;2022-07-04T12:00:13;36.55;23.11
70214;DHT22;60138;55.808;37.078;2022-07-04T12:02:39;36.97;19.17
70214;DHT22;60138;55.808;37.078;2022-07-04T12:05:07;37.52;22.60
70214;DHT22;60138;55.808;37.078;2022-07-04T12:07:36;38.45;22.88
70214;DHT22;60138;55.808;37.078;2022-07-04T12:10:22;39.66;21.18
70214;DHT22;60138;55.808;37.078;2022-07-04T12:12:59;40.65;20.14
70214;DHT22;60138;55.808;37.078;2022-07-04T12:15:36;41.57;18.60
70214;DHT22;60138;55.808;37.078;2022-07-04T12:18:02;42.18;16.15
70214;DHT22;60138;55.808;37.078;2022-07-04T12:20:28;42.64;12.58
70214;DHT22;60138;55.808;37.078;2022-07-04T12:22:55;42.47;11.83
70214;DHT22;60138;55.808;37.078;2022-07-04T12:25:33;42.16;11.83
70214;DHT22;60138;55.808;37.078;2022-07-04T12:28:07;42.08;13.74
70214;DHT22;60138;55.808;37.078;2022-07-04T12:30:35;42.04;11.92
70214;DHT22;60138;55.808;37.078;2022-07-04T12:33:08;42.45;18.55
70214;DHT22;60138;55.808;37.078;2022-07-04T12:38:34;44.82;15.90
70214;DHT22;60138;55.808;37.078;2022-07-04T12:46:06;45.70;18.32
70214;DHT22;60138;55.808;37.078;2022-07-04T12:48:32;45.88;17.49
70214;DHT22;60138;55.808;37.078;2022-07-04T12:51:17;45.06;14.82
70214;DHT22;60138;55.808;37.078;2022-07-04T12:53:44;44.80;18.10
70214;DHT22;60138;55.808;37.078;2022-07-04T12:56:29;44.17;10.65
70214;DHT22;60138;55.808;37.078;2022-07-04T12:58:56;43.99;16.38
70214;DHT22;60138;55.808;37.078;2022-07-04T13:01:22;44.23;15.61
70214;DHT22;60138;55.808;37.078;2022-07-04T13:03:47;44.53;14.38
70214;DHT22;60138;55.808;37.078;2022-07-04T13:06:13;44.76;13.38
70214;DHT22;60138;55.808;37.078;2022-07-04T13:08:39;44.80;15.15
70214;DHT22;60138;55.808;37.078;2022-07-04T13:11:05;45.62;16.21
70214;DHT22;60138;55.808;37.078;2022-07-04T13:13:30;46.16;14.55
70214;DHT22;60138;55.808;37.078;2022-07-04T13:15:56;46.24;16.72
70214;DHT22;60138;55.808;37.078;2022-07-04T13:18:21;46.83;16.42
70214;DHT22;60138;55.808;37.078;2022-07-04T13:20:47;47.68;13.88
70214;DHT22;60138;55.808;37.078;2022-07-04T13:23:13;47.66;14.02
70214;DHT22;60138;55.808;37.078;2022-07-04T13:25:38;46.54;11.71
70214;DHT22;60138;55.808;37.078;2022-07-04T13:28:04;45.72;9.08
70214;DHT22;60138;55.808;37.078;2022-07-04T13:30:30;45.57;14.94
70214;DHT22;60138;55.808;37.078;2022-07-04T13:32:55;45.54;11.81
70214;DHT22;60138;55.808;37.078;2022-07-04T13:35:21;45.28;15.02
70214;DHT22;60138;55.808;37.078;2022-07-04T13:37:47;46.12;15.75
70214;DHT22;60138;55.808;37.078;2022-07-04T13:40:13;47.03;16.16
70214;DHT22;60138;55.808;37.078;2022-07-04T13:42:38;47.01;10.63
70214;DHT22;60138;55.808;37.078;2022-07-04T13:45:05;46.58;13.85
70214;DHT22;60138;55.808;37.078;2022-07-04T13:47:31;46.21;14.56
70214;DHT22;60138;55.808;37.078;2022-07-04T13:49:56;46.03;15.11
70214;DHT22;60138;55.808;37.078;2022-07-04T13:52:22;45.95;14.60
70214;DHT22;60138;55.808;37.078;2022-07-04T13:54:48;46.32;15.96
70214;DHT22;60138;55.808;37.078;2022-07-04T13:57:14;46.38;15.23
70214;DHT22;60138;55.808;37.078;2022-07-04T13:59:39;46.62;16.02
70214;DHT22;60138;55.808;37.078;2022-07-04T14:02:05;46.43;14.56
70214;DHT22;60138;55.808;37.078;2022-07-04T14:04:31;46.62;14.90
70214;DHT22;60138;55.808;37.078;2022-07-04T14:06:57;46.88;15.88
70214;DHT22;60138;55.808;37.078;2022-07-04T14:09:22;46.71;14.37
70214;DHT22;60138;55.808;37.078;2022-07-04T14:11:48;46.87;15.44
70214;DHT22;60138;55.808;37.078;2022-07-04T14:14:14;47.11;14.84
70214;DHT22;60138;55.808;37.078;2022-07-04T14:16:39;46.94;11.58
70214;DHT22;60138;55.808;37.078;2022-07-04T14:19:05;46.44;13.84
70214;DHT22;60138;55.808;37.078;2022-07-04T14:21:31;46.12;13.21
70214;DHT22;60138;55.808;37.078;2022-07-04T14:23:56;45.79;10.31
70214;DHT22;60138;55.808;37.078;2022-07-04T14:26:22;45.44;13.48
70214;DHT22;60138;55.808;37.078;2022-07-04T14:28:47;45.09;11.11
70214;DHT22;60138;55.808;37.078;2022-07-04T14:31:13;45.56;14.55
70214;DHT22;60138;55.808;37.078;2022-07-04T14:33:39;45.88;11.44
70214;DHT22;60138;55.808;37.078;2022-07-04T14:36:06;45.69;12.01
70214;DHT22;60138;55.808;37.078;2022-07-04T14:38:31;45.54;8.82
70214;DHT22;60138;55.808;37.078;2022-07-04T14:40:57;45.44;13.94
70214;DHT22;60138;55.808;37.078;2022-07-04T14:43:23;45.65;11.50
70214;DHT22;60138;55.808;37.078;2022-07-04T14:45:49;45.39;13.30
70214;DHT22;60138;55.808;37.078;2022-07-04T14:48:14;45.56;13.41
70214;DHT22;60138;55.808;37.078;2022-07-04T14:50:40;45.18;11.48
70214;DHT22;60138;55.808;37.078;2022-07-04T14:53:06;45.20;14.04
70214;DHT22;60138;55.808;37.078;2022-07-04T14:55:31;45.31;11.62
70214;DHT22;60138;55.808;37.078;2022-07-04T14:57:57;44.89;13.23
70214;DHT22;60138;55.808;37.078;2022-07-04T15:00:23;44.38;13.48
70214;DHT22;60138;55.808;37.078;2022-07-04T15:02:49;43.88;10.56
70214;DHT22;60138;55.808;37.078;2022-07-04T15:05:14;43.56;10.68
70214;DHT22;60138;55.808;37.078;2022-07-04T15:07:40;43.09;11.68
70214;DHT22;60138;55.808;37.078;2022-07-04T15:10:06;43.05;13.80
70214;DHT22;60138;55.808;37.078;2022-07-04T15:12:32;43.08;11.94
70214;DHT22;60138;55.808;37.078;2022-07-04T15:14:58;42.73;13.47
70214;DHT22;60138;55.808;37.078;2022-07-04T15:17:23;42.65;13.55
70214;DHT22;60138;55.808;37.078;2022-07-04T15:19:49;42.80;14.39
70214;DHT22;60138;55.808;37.078;2022-07-04T15:22:15;43.02;14.26
70214;DHT22;60138;55.808;37.078;2022-07-04T15:24:40;43.13;14.48
70214;DHT22;60138;55.808;37.078;2022-07-04T15:27:06;43.23;14.22
70214;DHT22;60138;55.808;37.078;2022-07-04T15:29:32;42.88;12.10
70214;DHT22;60138;55.808;37.078;2022-07-04T15:31:58;42.30;13.20
70214;DHT22;60138;55.808;37.078;2022-07-04T15:34:23;41.32;13.44
70214;DHT22;60138;55.808;37.078;2022-07-04T15:36:49;40.54;13.31
70214;DHT22;60138;55.808;37.078;2022-07-04T15:39:16;40.09;14.75
70214;DHT22;60138;55.808;37.078;2022-07-04T15:41:42;39.54;15.57
70214;DHT22;60138;55.808;37.078;2022-07-04T15:44:08;39.13;16.03